»·PEaware :: SWA210 KSAN-KMRY

SWA210 :: KSAN-KMRY

FLIGHT INFORMATION

Flight Status: Arrived
Operator:
Southwest Airlines
More flights by this operator :: More flights under this callsign
Pilot: Anonymous 16446 (16446)
Aircraft: BOEING 737-200
(B732)
More flights by this aircraft type
Origin: KSAN San Diego Intl-Lindbergh
United States
Destination: KMRY Monterey Peninsula
United States
More flights between these airports :: More routes between these airports
Route: +PEBLE6 SXC RZS CEANO J88 GOALI
File this flight plan on PilotEdge
Remarks:
Altitude:
(Current/Filed)
29,000ft
Speed:
(Current/Filed)
450kts
Departed: 29-Dec-17 10:53 PM
Arrived: 29-Dec-17 11:57 PM
Distance/Time
Traveled:
326nm/1:03
Distance/Time
To Go:
Arrived

Flight Plot

Page will automatically refresh every two minutes.

Flight plan parsing failed; only flown route is shown


Map Options




Map Legend


Flown Route
Filed Route
Departure Airport
Arrival Airport
Navaid (VOR, NDB)
Fix

Horizontal Profiles

Position Reports

Time Latitude Longitude Heading Altitude Ground
Speed
29-Dec-17 22:30 32.733005 -117.199103 93 25ft 0kts
29-Dec-17 22:31 32.733005 -117.199103 93 25ft 0kts
29-Dec-17 22:32 32.733005 -117.199103 93 25ft 0kts
29-Dec-17 22:33 32.733005 -117.199104 93 25ft 0kts
29-Dec-17 22:34 32.733005 -117.199104 93 25ft 0kts
29-Dec-17 22:35 32.733005 -117.199104 93 25ft 0kts
29-Dec-17 22:36 32.733005 -117.199104 93 25ft 0kts
29-Dec-17 22:37 32.733005 -117.199104 93 25ft 0kts
29-Dec-17 22:38 32.733013 -117.199259 93 25ft 2kts
29-Dec-17 22:39 32.732981 -117.199888 50 25ft 2kts
29-Dec-17 22:40 32.732817 -117.200004 13 26ft 0kts
29-Dec-17 22:41 32.732817 -117.200004 13 26ft 0kts
29-Dec-17 22:42 32.732817 -117.200004 13 26ft 0kts
29-Dec-17 22:43 32.732817 -117.200004 13 26ft 0kts
29-Dec-17 22:44 32.732817 -117.200004 13 26ft 0kts
29-Dec-17 22:45 32.732817 -117.200004 13 26ft 0kts
29-Dec-17 22:46 32.732817 -117.200004 13 26ft 0kts
29-Dec-17 22:47 32.732817 -117.200004 13 26ft 0kts
29-Dec-17 22:48 32.734042 -117.199620 16 25ft 13kts
29-Dec-17 22:49 32.734271 -117.199549 12 24ft 0kts
29-Dec-17 22:50 32.734271 -117.199549 12 24ft 0kts
29-Dec-17 22:51 32.734271 -117.199549 12 24ft 0kts
29-Dec-17 22:52 32.734271 -117.199549 12 24ft 0kts
29-Dec-17 22:53 32.734180 -117.196358 104 25ft 27kts
29-Dec-17 22:54 32.731954 -117.187239 106 22ft 23kts
29-Dec-17 22:55 32.730150 -117.179800 106 20ft 20kts
29-Dec-17 22:56 32.729455 -117.177034 88 22ft 0kts
29-Dec-17 22:57 32.729455 -117.177034 88 22ft 0kts
29-Dec-17 22:58 32.729455 -117.177034 88 22ft 0kts
29-Dec-17 22:59 32.731350 -117.180296 286 21ft 88kts
29-Dec-17 23:00 32.746802 -117.237610 290 1635ft 242kts
29-Dec-17 23:01 32.787136 -117.306142 305 6188ft 267kts
29-Dec-17 23:02 32.829954 -117.382420 304 10340ft 290kts
29-Dec-17 23:03 32.876214 -117.464282 304 13923ft 309kts
29-Dec-17 23:04 32.925118 -117.551267 303 17236ft 325kts
29-Dec-17 23:05 32.978254 -117.650302 302 18632ft 397kts
29-Dec-17 23:06 33.036069 -117.762535 300 21950ft 407kts
29-Dec-17 23:07 33.096093 -117.878370 300 24144ft 415kts
29-Dec-17 23:08 33.126376 -117.935490 301 25119ft 418kts
29-Dec-17 23:09 33.191637 -118.051157 313 26660ft 431kts
29-Dec-17 23:10 33.272950 -118.154653 312 28043ft 439kts
29-Dec-17 23:11 33.350848 -118.254060 312 29202ft 443kts
29-Dec-17 23:12 33.434299 -118.360897 312 29195ft 437kts
29-Dec-17 23:13 33.515624 -118.465368 312 29195ft 433kts
29-Dec-17 23:14 33.597193 -118.570450 312 29195ft 428kts
29-Dec-17 23:15 33.675654 -118.672411 310 29180ft 425kts
29-Dec-17 23:16 33.753777 -118.775201 311 29158ft 422kts
29-Dec-17 23:17 33.832933 -118.878375 311 29152ft 420kts
29-Dec-17 23:18 33.911607 -118.980920 311 29154ft 418kts
29-Dec-17 23:19 33.990114 -119.083699 311 29154ft 425kts
29-Dec-17 23:20 34.070063 -119.188578 311 29146ft 421kts
29-Dec-17 23:21 34.139543 -119.278547 311 29146ft 408kts
29-Dec-17 23:22 34.214553 -119.377245 311 29139ft 391kts
29-Dec-17 23:23 34.285619 -119.471166 310 29140ft 369kts
29-Dec-17 23:24 34.349877 -119.560808 310 29140ft 349kts
29-Dec-17 23:25 34.413412 -119.644443 311 29145ft 332kts
29-Dec-17 23:26 34.473326 -119.723818 310 29155ft 333kts
29-Dec-17 23:27 34.533551 -119.808730 312 29189ft 335kts
29-Dec-17 23:28 34.598490 -119.890369 311 29168ft 339kts
29-Dec-17 23:29 34.663383 -119.974663 310 29179ft 344kts
29-Dec-17 23:30 34.728773 -120.060601 310 29184ft 350kts
29-Dec-17 23:31 34.795267 -120.148427 310 29179ft 357kts
29-Dec-17 23:32 34.862387 -120.237386 310 29169ft 350kts
29-Dec-17 23:33 34.926473 -120.322492 310 29156ft 336kts
29-Dec-17 23:34 34.994828 -120.413886 310 29172ft 389kts
29-Dec-17 23:35 35.070201 -120.514567 310 29170ft 414kts
29-Dec-17 23:36 35.144122 -120.612183 310 29166ft 435kts
29-Dec-17 23:37 35.219826 -120.715923 309 29166ft 442kts
29-Dec-17 23:38 35.307333 -120.823307 315 29162ft 450kts
29-Dec-17 23:39 35.403392 -120.919271 319 29130ft 438kts
29-Dec-17 23:40 35.493968 -121.003711 319 28717ft 391kts
29-Dec-17 23:41 35.580160 -121.083257 319 27454ft 386kts
29-Dec-17 23:42 35.664713 -121.161173 319 26401ft 376kts
29-Dec-17 23:43 35.745950 -121.236144 319 25511ft 361kts
29-Dec-17 23:44 35.826402 -121.310707 320 23913ft 355kts
29-Dec-17 23:45 35.903876 -121.382534 320 22307ft 348kts
29-Dec-17 23:46 35.980148 -121.453451 320 20767ft 340kts
29-Dec-17 23:47 36.053951 -121.522289 320 18636ft 326kts
29-Dec-17 23:48 36.111973 -121.576411 321 17046ft 314kts
29-Dec-17 23:49 36.168303 -121.628844 321 15363ft 306kts
29-Dec-17 23:50 36.231160 -121.682635 326 14139ft 267kts
29-Dec-17 23:51 36.301286 -121.736406 325 12484ft 236kts
29-Dec-17 23:52 36.347589 -121.772323 326 11035ft 236kts
29-Dec-17 23:53 36.402554 -121.815142 326 9398ft 232kts
29-Dec-17 23:54 36.456539 -121.857335 327 7817ft 228kts
29-Dec-17 23:55 36.516678 -121.917602 326 5166ft 249kts
29-Dec-17 23:56 36.560776 -121.932746 76 3837ft 221kts
29-Dec-17 23:57 36.552963 -121.869087 117 2809ft 156kts
29-Dec-17 23:58 36.532681 -121.830507 123 2140ft 113kts
29-Dec-17 23:59 36.522734 -121.794576 74 2230ft 113kts
30-Dec-17 00:00 36.541857 -121.762276 37 2425ft 129kts
30-Dec-17 00:01 36.568501 -121.782503 286 1205ft 139kts
30-Dec-17 00:02 36.582053 -121.825185 294 302ft 127kts
30-Dec-17 00:03 36.587327 -121.840910 291 175ft 0kts
30-Dec-17 00:04 36.583705 -121.830153 293 228ft 126kts
30-Dec-17 00:05 36.587327 -121.840910 291 175ft 0kts
30-Dec-17 00:06 36.588384 -121.846962 262 175ft 45kts
30-Dec-17 00:07 36.587361 -121.849810 234 175ft 0kts
30-Dec-17 00:08 36.587361 -121.849810 234 175ft 0kts
30-Dec-17 00:09 36.587361 -121.849810 234 175ft 0kts
30-Dec-17 00:10 36.587361 -121.849810 234 175ft 0kts
30-Dec-17 00:11 36.587361 -121.849810 234 175ft 0kts
30-Dec-17 00:12 36.587361 -121.849810 234 175ft 0kts
30-Dec-17 00:13 36.587361 -121.849810 234 175ft 0kts
30-Dec-17 00:14 36.587361 -121.849810 234 175ft 0kts
30-Dec-17 00:15 36.587361 -121.849810 234 175ft 0kts
30-Dec-17 00:16 36.587361 -121.849810 234 175ft 0kts
30-Dec-17 00:17 36.587361 -121.849810 234 175ft 0kts

Navigation Log

Ident Type
Flight plan parsing failed, navigation log unavailable